Time;durP1;ratioP1;P1;durP2;ratioP2;P2;SDS_P1;SDS_P2;PMS_P1;PMS_P2;Temp;Humidity;BMP_temperature;BMP_pressure;BME280_temperature;BME280_humidity;BME280_pressure;Samples;Min_cycle;Max_cycle;Signal;HPM_P1;HPM_P2
2022/05/28 00:01:53;;;;;;;9.33;1.87;;;12.40;99.90;;;;;;5015034;28;20465;-80
2022/05/28 00:04:21;;;;;;;7.80;2.57;;;12.30;99.90;;;;;;5016747;28;20531;-80
2022/05/28 00:06:48;;;;;;;8.40;2.43;;;12.30;99.90;;;;;;5016474;28;20525;-80
2022/05/28 00:09:15;;;;;;;7.90;2.20;;;12.30;99.90;;;;;;5016188;28;20449;-81
2022/05/28 00:11:42;;;;;;;9.90;2.53;;;12.30;99.90;;;;;;5015028;28;20516;-82
2022/05/28 00:14:10;;;;;;;6.70;1.97;;;12.30;99.90;;;;;;5019652;28;20975;-80
2022/05/28 00:16:38;;;;;;;9.87;2.23;;;12.30;99.90;;;;;;5038342;28;20454;-80
2022/05/28 00:19:06;;;;;;;5.47;2.10;;;12.30;99.90;;;;;;5039226;28;20452;-80
2022/05/28 00:21:34;;;;;;;8.73;2.17;;;12.30;99.90;;;;;;5038676;28;20463;-81
2022/05/28 00:24:01;;;;;;;9.23;2.87;;;12.10;99.90;;;;;;5038209;28;20522;-80
2022/05/28 00:26:28;;;;;;;6.73;2.63;;;12.10;99.90;;;;;;5036978;28;20877;-82
2022/05/28 00:28:55;;;;;;;10.43;2.47;;;12.10;99.90;;;;;;5019524;28;20457;-79
2022/05/28 00:31:22;;;;;;;5.07;2.10;;;12.00;99.90;;;;;;5018460;28;20464;-80
2022/05/28 00:33:49;;;;;;;6.83;2.60;;;12.00;99.90;;;;;;5019477;28;20934;-80
2022/05/28 00:36:17;;;;;;;9.83;2.60;;;11.90;99.90;;;;;;5018948;28;20463;-80
2022/05/28 00:38:46;;;;;;;7.53;2.90;;;11.90;99.90;;;;;;5030459;28;20461;-81
2022/05/28 00:41:13;;;;;;;8.83;2.63;;;11.90;99.90;;;;;;5042712;28;20468;-83
2022/05/28 00:43:42;;;;;;;8.30;2.60;;;11.90;99.90;;;;;;5043086;28;20539;-82
2022/05/28 00:46:13;;;;;;;9.80;2.40;;;11.90;99.90;;;;;;5042387;28;20458;-82
2022/05/28 00:48:45;;;;;;;6.80;2.00;;;11.90;99.90;;;;;;5041956;28;20452;-81
2022/05/28 00:51:15;;;;;;;8.40;2.80;;;11.80;99.90;;;;;;5022137;28;20461;-80
2022/05/28 00:53:42;;;;;;;5.10;1.90;;;11.70;99.90;;;;;;5021994;28;20482;-81
2022/05/28 00:56:11;;;;;;;7.30;2.00;;;11.80;99.90;;;;;;5019556;28;20546;-81
2022/05/28 00:58:39;;;;;;;6.77;1.93;;;11.80;99.90;;;;;;5019548;28;20946;-80
2022/05/28 01:01:07;;;;;;;11.03;3.10;;;11.80;99.90;;;;;;5019896;28;20461;-80
2022/05/28 01:03:37;;;;;;;13.87;3.57;;;11.80;99.90;;;;;;5021096;28;20486;-81
2022/05/28 01:06:09;;;;;;;8.30;2.60;;;11.80;99.90;;;;;;5022120;28;20456;-82
2022/05/28 01:08:40;;;;;;;12.70;2.70;;;11.70;99.90;;;;;;5022381;28;20450;-81
2022/05/28 01:11:19;;;;;;;8.27;2.10;;;11.70;99.90;;;;;;5042591;28;20544;-80
2022/05/28 01:13:58;;;;;;;9.57;2.43;;;11.60;99.90;;;;;;5044244;28;20562;-82
2022/05/28 01:16:33;;;;;;;9.37;1.90;;;11.60;99.90;;;;;;5037873;28;20460;-80
2022/05/28 01:19:05;;;;;;;6.57;2.43;;;11.70;99.90;;;;;;5024968;28;20460;-80
2022/05/28 01:21:43;;;;;;;8.40;3.07;;;11.50;99.90;;;;;;5016885;28;20458;-80
2022/05/28 01:24:20;;;;;;;8.67;2.27;;;11.50;99.90;;;;;;5017977;28;20485;-80
2022/05/28 01:26:57;;;;;;;10.07;2.50;;;11.50;99.90;;;;;;5015083;28;20664;-82
2022/05/28 01:29:29;;;;;;;7.20;2.30;;;11.50;99.90;;;;;;5020681;28;20466;-80
2022/05/28 01:31:57;;;;;;;7.27;2.50;;;11.50;99.90;;;;;;5016565;28;20465;-80
2022/05/28 01:34:25;;;;;;;13.87;3.13;;;11.40;99.90;;;;;;5017139;28;20455;-80
2022/05/28 01:36:53;;;;;;;9.23;2.23;;;11.40;99.90;;;;;;5017151;28;20465;-80
2022/05/28 01:39:21;;;;;;;7.97;2.47;;;11.40;99.90;;;;;;5021307;28;20454;-80
2022/05/28 01:41:50;;;;;;;8.57;2.20;;;11.30;99.90;;;;;;5040009;28;20460;-82
2022/05/28 01:44:19;;;;;;;5.00;2.00;;;11.30;99.90;;;;;;5041166;28;20493;-81
2022/05/28 01:46:48;;;;;;;7.00;2.37;;;11.30;99.90;;;;;;5041338;28;20445;-82
2022/05/28 01:49:18;;;;;;;6.03;2.00;;;11.30;99.90;;;;;;5039957;28;20531;-81
2022/05/28 01:51:51;;;;;;;8.33;2.83;;;11.30;99.90;;;;;;5023297;28;20466;-81
2022/05/28 01:54:22;;;;;;;5.30;1.90;;;11.30;99.90;;;;;;5020807;28;21065;-81
2022/05/28 01:56:51;;;;;;;10.63;2.50;;;11.20;99.90;;;;;;5020176;28;20455;-82
2022/05/28 01:59:24;;;;;;;7.40;2.10;;;11.20;99.90;;;;;;5020244;28;20510;-81
2022/05/28 02:01:51;;;;;;;6.60;2.13;;;11.20;99.90;;;;;;5033742;28;20839;-82
2022/05/28 02:04:18;;;;;;;8.27;3.30;;;11.20;99.90;;;;;;5034801;28;21035;-83
2022/05/28 02:06:45;;;;;;;8.40;2.80;;;11.20;99.90;;;;;;5035057;28;20449;-80
2022/05/28 02:09:15;;;;;;;7.57;2.80;;;11.20;99.90;;;;;;5035872;28;20453;-82
2022/05/28 02:12:00;;;;;;;9.60;2.27;;;11.10;99.90;;;;;;5021818;28;20485;-80
2022/05/28 02:14:43;;;;;;;7.10;2.03;;;11.20;99.90;;;;;;5015583;28;20449;-80
2022/05/28 02:17:14;;;;;;;10.13;2.63;;;11.20;99.90;;;;;;5016381;28;20900;-80
2022/05/28 02:19:52;;;;;;;15.00;2.20;;;11.30;99.90;;;;;;5015917;28;20423;-80
2022/05/28 02:22:28;;;;;;;10.77;2.00;;;11.30;99.90;;;;;;5032123;28;20482;-80
2022/05/28 02:25:01;;;;;;;5.30;1.93;;;11.30;99.90;;;;;;5036710;28;20482;-79
2022/05/28 02:27:29;;;;;;;9.23;2.50;;;11.30;99.90;;;;;;5042139;28;20829;-82
2022/05/28 02:30:00;;;;;;;9.77;2.70;;;11.30;99.90;;;;;;5040984;28;20499;-80
2022/05/28 02:32:27;;;;;;;5.80;2.30;;;11.20;99.90;;;;;;5039631;28;20469;-81
2022/05/28 02:34:54;;;;;;;9.50;2.73;;;11.20;99.90;;;;;;5036838;28;20449;-80
2022/05/28 02:37:24;;;;;;;5.93;2.20;;;11.30;99.90;;;;;;5034885;28;20448;-80
2022/05/28 02:39:52;;;;;;;5.67;1.97;;;11.30;99.90;;;;;;5035283;28;20449;-79
2022/05/28 02:42:19;;;;;;;4.50;1.83;;;11.20;99.90;;;;;;5034547;28;20496;-80
2022/05/28 02:44:46;;;;;;;12.80;2.63;;;11.20;99.90;;;;;;5030781;28;20500;-80
2022/05/28 02:47:14;;;;;;;7.87;2.70;;;11.20;99.90;;;;;;5015405;28;20462;-80
2022/05/28 02:49:40;;;;;;;6.87;2.47;;;11.10;99.90;;;;;;5015071;28;20453;-80
2022/05/28 02:52:08;;;;;;;7.13;2.80;;;11.10;99.90;;;;;;5014140;28;20483;-81
2022/05/28 02:54:36;;;;;;;8.17;2.40;;;11.10;99.90;;;;;;5014882;28;20454;-80
2022/05/28 02:57:04;;;;;;;9.97;2.83;;;11.20;99.90;;;;;;5033494;28;20452;-82
2022/05/28 02:59:31;;;;;;;7.63;2.50;;;11.20;99.90;;;;;;5034045;28;20984;-80
2022/05/28 03:01:58;;;;;;;10.00;2.20;;;11.20;99.90;;;;;;5033864;28;20460;-80
2022/05/28 03:04:26;;;;;;;7.80;3.50;;;11.20;99.90;;;;;;5033705;28;21023;-80
2022/05/28 03:06:54;;;;;;;11.80;2.60;;;11.30;99.90;;;;;;5016161;28;20489;-80
2022/05/28 03:09:21;;;;;;;5.63;2.60;;;11.40;99.90;;;;;;5014496;28;20541;-82
2022/05/28 03:11:48;;;;;;;7.10;1.90;;;11.50;99.90;;;;;;5013736;28;20889;-80
2022/05/28 03:14:17;;;;;;;8.13;2.10;;;11.60;99.90;;;;;;5014553;28;20448;-80
2022/05/28 03:16:44;;;;;;;11.10;2.80;;;11.80;99.90;;;;;;5031590;28;20457;-84
2022/05/28 03:19:11;;;;;;;8.47;2.23;;;11.80;99.90;;;;;;5050477;28;20512;-78
2022/05/28 03:21:39;;;;;;;6.97;2.77;;;11.80;99.90;;;;;;5033271;28;20456;-80
2022/05/28 03:24:07;;;;;;;8.90;2.87;;;11.90;99.90;;;;;;5033448;28;20494;-81
2022/05/28 03:26:34;;;;;;;7.10;2.40;;;12.00;99.90;;;;;;5023088;28;20460;-80
2022/05/28 03:29:01;;;;;;;11.97;2.60;;;12.00;99.90;;;;;;5028150;28;20536;-80
2022/05/28 03:31:29;;;;;;;12.30;3.07;;;12.00;99.90;;;;;;5032719;28;20457;-79
2022/05/28 03:33:56;;;;;;;8.70;3.47;;;12.10;99.90;;;;;;5033644;28;20987;-80
2022/05/28 03:36:24;;;;;;;6.87;2.20;;;12.00;99.90;;;;;;5033416;28;20450;-80
2022/05/28 03:38:52;;;;;;;10.07;2.63;;;12.00;99.90;;;;;;5015724;28;20960;-80
2022/05/28 03:41:19;;;;;;;11.63;3.47;;;11.90;99.90;;;;;;5012819;28;20951;-80
2022/05/28 03:43:47;;;;;;;8.63;2.77;;;11.90;99.90;;;;;;5013338;28;21040;-82
2022/05/28 03:46:22;;;;;;;12.20;3.10;;;11.90;99.90;;;;;;5013289;28;20450;-81
2022/05/28 03:48:49;;;;;;;6.93;2.30;;;11.80;99.90;;;;;;5018598;28;20895;-81
2022/05/28 03:51:16;;;;;;;8.10;2.67;;;11.70;99.90;;;;;;5037042;28;20447;-81
2022/05/28 03:53:43;;;;;;;13.00;3.23;;;11.80;99.90;;;;;;5037084;28;21056;-81
2022/05/28 03:56:11;;;;;;;11.23;3.10;;;11.90;99.90;;;;;;5041012;28;20452;-81
2022/05/28 03:58:38;;;;;;;7.60;2.30;;;11.80;99.90;;;;;;5043248;28;20446;-81
2022/05/28 04:01:05;;;;;;;11.30;2.80;;;11.90;99.90;;;;;;5024178;28;20461;-80
2022/05/28 04:03:31;;;;;;;11.10;3.93;;;12.00;99.90;;;;;;5023441;28;20466;-81
2022/05/28 04:05:59;;;;;;;13.80;3.10;;;12.00;99.90;;;;;;5023290;28;20494;-81
2022/05/28 04:08:26;;;;;;;9.83;3.00;;;12.00;99.90;;;;;;5022677;28;20971;-81
2022/05/28 04:10:52;;;;;;;7.90;2.53;;;12.10;99.90;;;;;;5023187;28;20459;-80
2022/05/28 04:13:21;;;;;;;11.37;2.90;;;12.20;99.90;;;;;;5046050;22;20502;-79
2022/05/28 04:15:50;;;;;;;11.50;2.77;;;12.20;99.90;;;;;;5019357;28;20898;-79
2022/05/28 04:18:17;;;;;;;8.40;3.47;;;12.20;99.90;;;;;;5019024;28;20453;-79
2022/05/28 04:20:44;;;;;;;8.67;2.57;;;12.20;99.90;;;;;;5018125;28;21300;-79
2022/05/28 04:23:10;;;;;;;8.00;2.40;;;12.20;99.90;;;;;;5018964;28;20475;-79
2022/05/28 04:25:38;;;;;;;7.70;2.87;;;12.30;99.90;;;;;;5019658;28;20488;-79
2022/05/28 04:28:05;;;;;;;5.87;3.07;;;12.40;99.90;;;;;;5019724;28;20530;-79
2022/05/28 04:30:33;;;;;;;8.80;2.50;;;12.30;99.90;;;;;;5018243;28;20454;-79
2022/05/28 04:33:00;;;;;;;10.83;3.10;;;12.40;99.90;;;;;;5019095;28;20479;-79
2022/05/28 04:35:27;;;;;;;9.00;3.10;;;12.40;99.90;;;;;;5019270;28;20451;-79
2022/05/28 04:37:54;;;;;;;7.53;3.10;;;12.50;99.90;;;;;;5019259;28;20445;-79
2022/05/28 04:40:21;;;;;;;9.03;2.90;;;12.60;99.90;;;;;;5018178;28;20464;-79
2022/05/28 04:42:47;;;;;;;8.90;2.60;;;12.60;99.90;;;;;;5017789;28;20454;-79
2022/05/28 04:45:14;;;;;;;10.00;3.10;;;12.60;99.90;;;;;;5018239;28;20581;-79
2022/05/28 04:47:42;;;;;;;7.63;2.80;;;12.50;99.90;;;;;;5025416;28;20471;-79
2022/05/28 04:50:10;;;;;;;8.43;3.00;;;12.50;99.90;;;;;;5026188;28;20463;-80
2022/05/28 04:52:38;;;;;;;8.67;2.83;;;12.50;99.90;;;;;;5026734;28;20460;-79
2022/05/28 04:55:06;;;;;;;11.30;2.77;;;12.50;99.90;;;;;;5028516;28;20484;-78
2022/05/28 04:57:32;;;;;;;12.77;3.17;;;12.50;99.90;;;;;;5027895;28;20450;-78
2022/05/28 04:59:59;;;;;;;5.80;2.73;;;12.50;99.90;;;;;;5029523;28;20459;-79
2022/05/28 05:02:26;;;;;;;12.07;2.60;;;12.40;99.90;;;;;;5023082;28;20450;-79
2022/05/28 05:04:57;;;;;;;8.67;3.20;;;12.50;99.90;;;;;;5019738;28;20486;-79
2022/05/28 05:07:24;;;;;;;11.60;2.20;;;12.50;99.90;;;;;;5019369;28;20452;-79
2022/05/28 05:09:51;;;;;;;14.07;3.00;;;12.50;99.90;;;;;;5019984;28;20450;-79
2022/05/28 05:12:19;;;;;;;15.60;3.50;;;12.50;99.90;;;;;;5019063;28;20455;-79
2022/05/28 05:14:46;;;;;;;10.53;2.97;;;12.50;99.90;;;;;;5020252;28;20549;-79
2022/05/28 05:17:12;;;;;;;8.83;3.00;;;12.40;99.90;;;;;;5020424;28;20551;-79
2022/05/28 05:19:39;;;;;;;9.67;2.57;;;12.40;99.90;;;;;;5019439;28;20456;-79
2022/05/28 05:22:07;;;;;;;5.43;1.93;;;12.60;99.90;;;;;;5018976;28;20467;-80
2022/05/28 05:24:34;;;;;;;11.17;3.20;;;12.70;99.90;;;;;;5019125;28;20481;-79
2022/05/28 05:27:01;;;;;;;8.87;2.60;;;12.80;99.90;;;;;;5019281;28;20460;-79
2022/05/28 05:29:28;;;;;;;8.33;1.90;;;13.00;99.90;;;;;;5020650;28;20457;-79
2022/05/28 05:31:54;;;;;;;11.27;3.00;;;13.10;99.90;;;;;;5019276;28;20993;-79
2022/05/28 05:34:21;;;;;;;10.80;3.30;;;13.10;99.90;;;;;;5018066;28;20475;-79
2022/05/28 05:36:48;;;;;;;8.93;3.40;;;13.10;99.90;;;;;;5026822;28;20446;-80
2022/05/28 05:39:17;;;;;;;7.50;2.87;;;13.20;99.90;;;;;;5029160;28;20464;-79
2022/05/28 05:41:44;;;;;;;9.00;2.93;;;13.20;99.90;;;;;;5027517;28;20534;-79
2022/05/28 05:44:12;;;;;;;8.27;2.40;;;13.20;99.90;;;;;;5027968;28;20467;-79
2022/05/28 05:46:40;;;;;;;8.77;2.20;;;13.20;99.90;;;;;;5030460;28;20516;-79
2022/05/28 05:49:07;;;;;;;4.93;2.07;;;13.30;99.90;;;;;;5030579;28;20479;-79
2022/05/28 05:51:36;;;;;;;6.43;2.03;;;13.40;99.90;;;;;;5030473;28;21012;-79
2022/05/28 05:54:03;;;;;;;5.30;2.67;;;13.30;99.90;;;;;;5033193;28;20501;-79
2022/05/28 05:56:31;;;;;;;9.93;2.00;;;13.30;99.90;;;;;;5031216;28;20453;-79
2022/05/28 05:58:58;;;;;;;8.40;2.33;;;13.50;99.90;;;;;;5026887;28;20446;-79
2022/05/28 06:01:25;;;;;;;5.40;1.90;;;13.50;99.90;;;;;;5023482;28;20451;-80
2022/05/28 06:03:52;;;;;;;6.10;2.00;;;13.50;99.90;;;;;;5024765;28;20516;-79
2022/05/28 06:06:20;;;;;;;4.37;1.20;;;13.70;99.90;;;;;;5026612;28;20487;-81
2022/05/28 06:08:48;;;;;;;7.67;2.00;;;13.90;99.90;;;;;;5026777;28;20493;-80
2022/05/28 06:11:15;;;;;;;8.57;1.90;;;14.30;99.90;;;;;;5025155;28;20462;-80
2022/05/28 06:13:43;;;;;;;5.63;1.47;;;14.30;99.90;;;;;;5026945;28;20492;-79
2022/05/28 06:16:10;;;;;;;5.60;1.87;;;14.30;99.90;;;;;;5024671;28;20521;-79
2022/05/28 06:18:37;;;;;;;4.70;1.73;;;14.50;99.90;;;;;;5024783;28;20461;-79
2022/05/28 06:21:04;;;;;;;4.07;1.30;;;14.60;99.90;;;;;;5020767;28;20526;-80
2022/05/28 06:23:31;;;;;;;9.90;2.17;;;14.50;99.90;;;;;;5026713;28;21072;-80
2022/05/28 06:25:58;;;;;;;5.53;1.97;;;14.60;99.90;;;;;;5026183;28;20566;-81
2022/05/28 06:28:25;;;;;;;6.50;1.83;;;14.60;99.90;;;;;;5025171;28;20459;-79
2022/05/28 06:30:53;;;;;;;8.13;1.50;;;14.60;99.90;;;;;;5021759;28;20494;-79
2022/05/28 06:33:20;;;;;;;6.70;1.70;;;14.60;99.90;;;;;;5025727;28;20473;-80
2022/05/28 06:35:47;;;;;;;5.70;1.40;;;14.60;99.90;;;;;;5027984;28;20456;-80
2022/05/28 06:38:14;;;;;;;12.47;1.90;;;14.60;99.90;;;;;;5028153;28;20450;-79
2022/05/28 06:40:41;;;;;;;5.70;1.70;;;14.70;99.90;;;;;;5027533;28;20994;-79
2022/05/28 06:43:08;;;;;;;4.50;1.20;;;14.70;99.90;;;;;;5028702;28;20474;-79
2022/05/28 06:45:35;;;;;;;6.80;1.47;;;14.80;99.90;;;;;;5029337;28;20516;-80
2022/05/28 06:48:03;;;;;;;4.20;1.23;;;14.90;99.90;;;;;;5028275;28;20825;-78
2022/05/28 06:53:14;;;;;;;4.43;1.67;;;14.90;99.90;;;;;;5027769;28;20476;-80
2022/05/28 06:55:41;;;;;;;3.40;1.07;;;15.00;99.90;;;;;;5028469;28;20507;-80
2022/05/28 06:58:08;;;;;;;4.40;1.00;;;15.00;99.90;;;;;;5027867;28;20462;-78
2022/05/28 07:00:36;;;;;;;2.63;0.97;;;15.10;99.90;;;;;;5027961;28;20448;-82
2022/05/28 07:03:05;;;;;;;6.03;2.23;;;15.00;99.90;;;;;;5026694;28;21066;-78
2022/05/28 07:05:33;;;;;;;6.03;1.90;;;14.80;99.90;;;;;;5027459;28;20490;-79
2022/05/28 07:07:59;;;;;;;5.03;1.17;;;14.90;99.90;;;;;;5028116;28;20981;-80
2022/05/28 07:10:27;;;;;;;3.70;1.20;;;14.90;99.90;;;;;;5027581;28;20451;-79
2022/05/28 07:12:53;;;;;;;5.37;1.23;;;14.80;99.90;;;;;;5028929;28;20526;-80
2022/05/28 07:15:20;;;;;;;4.60;1.53;;;14.90;99.90;;;;;;5028509;28;20445;-79
2022/05/28 07:17:47;;;;;;;5.40;1.17;;;14.90;99.90;;;;;;5029542;28;20453;-80
2022/05/28 07:20:15;;;;;;;5.93;1.30;;;14.90;99.90;;;;;;5026812;28;20441;-79
2022/05/28 07:22:42;;;;;;;6.13;1.40;;;14.90;99.90;;;;;;5025773;28;20445;-79
2022/05/28 07:25:10;;;;;;;4.73;1.63;;;15.10;99.90;;;;;;5027449;28;20446;-80
2022/05/28 07:27:37;;;;;;;5.27;1.17;;;15.30;99.90;;;;;;5026449;28;20486;-79
2022/05/28 07:30:05;;;;;;;4.73;1.07;;;15.40;99.90;;;;;;5025692;28;20456;-79
2022/05/28 07:32:32;;;;;;;4.20;1.40;;;15.50;99.90;;;;;;5022499;28;20448;-80
2022/05/28 07:34:59;;;;;;;4.87;1.40;;;15.60;99.90;;;;;;5026721;28;20468;-78
2022/05/28 07:37:30;;;;;;;8.53;1.50;;;15.90;99.90;;;;;;5026645;28;20543;-79
2022/05/28 07:39:57;;;;;;;6.50;1.47;;;16.10;99.90;;;;;;5027408;28;20449;-79
2022/05/28 07:42:24;;;;;;;6.03;1.47;;;16.20;99.90;;;;;;5025422;28;20449;-79
2022/05/28 07:44:51;;;;;;;6.57;1.70;;;16.10;99.90;;;;;;5026290;28;20472;-79
2022/05/28 07:47:19;;;;;;;6.00;1.00;;;16.10;99.90;;;;;;5027753;28;20482;-80
2022/05/28 07:49:46;;;;;;;6.07;1.80;;;16.10;99.90;;;;;;5025459;28;20479;-80
2022/05/28 07:52:12;;;;;;;5.33;1.30;;;15.80;99.90;;;;;;5025185;28;20449;-80
2022/05/28 07:54:41;;;;;;;5.87;1.43;;;15.70;99.90;;;;;;5026102;28;20470;-80
2022/05/28 07:57:07;;;;;;;7.80;1.50;;;15.50;99.90;;;;;;5024978;28;20451;-79
2022/05/28 07:59:34;;;;;;;3.80;1.10;;;15.10;99.90;;;;;;5022624;28;20445;-79
2022/05/28 08:02:01;;;;;;;3.53;1.17;;;15.10;99.90;;;;;;5024126;28;20532;-79
2022/05/28 08:04:28;;;;;;;4.80;1.57;;;15.10;99.90;;;;;;5023927;28;20528;-79
2022/05/28 08:06:54;;;;;;;8.10;1.20;;;15.20;99.90;;;;;;5026153;28;20520;-80
2022/05/28 08:09:21;;;;;;;4.90;1.00;;;15.30;99.90;;;;;;5025353;28;20462;-79
2022/05/28 08:11:49;;;;;;;4.87;1.47;;;15.40;99.90;;;;;;5024997;28;20446;-78
2022/05/28 08:14:16;;;;;;;7.37;1.43;;;15.60;99.90;;;;;;5023382;28;20543;-79
2022/05/28 08:16:43;;;;;;;5.30;1.20;;;16.10;99.90;;;;;;5024352;28;20835;-79
2022/05/28 08:19:10;;;;;;;4.57;1.10;;;16.60;99.90;;;;;;5024077;28;20459;-79
2022/05/28 08:24:17;;;;;;;3.37;1.17;;;16.80;99.90;;;;;;4978150;28;20449;-78
2022/05/28 08:26:44;;;;;;;6.40;1.70;;;16.30;99.90;;;;;;5022915;28;20489;-78
2022/05/28 08:29:12;;;;;;;6.93;1.30;;;15.80;99.90;;;;;;5027132;28;20544;-78
2022/05/28 08:31:39;;;;;;;8.23;1.43;;;15.80;99.90;;;;;;5026430;28;20449;-79
2022/05/28 08:34:06;;;;;;;6.70;1.30;;;15.80;99.90;;;;;;5030008;28;20457;-80
2022/05/28 08:36:32;;;;;;;6.67;1.20;;;16.00;99.90;;;;;;5030893;28;20814;-79
2022/05/28 08:38:59;;;;;;;4.47;1.17;;;16.10;99.90;;;;;;5031175;28;20475;-80
2022/05/28 08:41:29;;;;;;;4.60;1.20;;;16.50;99.90;;;;;;5029981;28;20477;-80
2022/05/28 08:44:02;;;;;;;3.70;1.10;;;17.10;99.90;;;;;;5030937;28;20462;-79
2022/05/28 08:46:35;;;;;;;5.80;2.00;;;17.50;99.90;;;;;;5030144;28;20491;-80
2022/05/28 08:49:02;;;;;;;5.20;1.43;;;17.70;99.90;;;;;;5028053;28;20455;-79
2022/05/28 08:51:36;;;;;;;5.50;1.20;;;17.80;99.90;;;;;;5028261;28;20480;-78
2022/05/28 08:54:09;;;;;;;3.73;1.40;;;17.70;99.90;;;;;;5030975;28;20464;-78
2022/05/28 08:56:37;;;;;;;6.03;2.03;;;18.00;99.90;;;;;;5030559;28;20525;-80
2022/05/28 08:59:08;;;;;;;4.20;1.30;;;18.30;99.90;;;;;;5031413;28;20452;-78
2022/05/28 09:01:39;;;;;;;4.80;1.07;;;18.40;99.90;;;;;;5030486;28;20451;-80
2022/05/28 09:04:12;;;;;;;3.00;1.17;;;18.50;99.90;;;;;;5030744;28;20471;-80
2022/05/28 09:06:43;;;;;;;4.90;1.30;;;18.90;99.90;;;;;;5030735;28;20483;-79
2022/05/28 09:09:13;;;;;;;4.30;1.33;;;19.20;99.90;;;;;;5030344;28;20502;-78
2022/05/28 09:11:44;;;;;;;16.37;1.93;;;19.40;99.90;;;;;;5028879;28;20453;-78
2022/05/28 09:14:26;;;;;;;4.40;1.03;;;19.10;99.90;;;;;;5028039;28;20483;-79
2022/05/28 09:16:56;;;;;;;3.63;1.27;;;18.80;99.90;;;;;;5027189;28;20448;-80
2022/05/28 09:19:26;;;;;;;3.47;1.10;;;18.30;99.90;;;;;;5027941;28;20463;-79
2022/05/28 09:21:53;;;;;;;5.67;1.40;;;17.90;99.90;;;;;;5024583;28;20456;-80
2022/05/28 09:24:23;;;;;;;4.93;1.70;;;17.50;99.90;;;;;;5021079;28;20473;-79
2022/05/28 09:27:02;;;;;;;3.00;1.10;;;17.50;99.90;;;;;;5022002;28;20477;-78
2022/05/28 09:29:43;;;;;;;4.83;1.47;;;17.60;99.90;;;;;;5026214;28;20462;-79
2022/05/28 09:32:17;;;;;;;6.20;1.40;;;17.90;99.90;;;;;;5025806;28;20484;-79
2022/05/28 09:34:58;;;;;;;3.57;1.20;;;17.80;99.90;;;;;;5025777;28;21011;-79
2022/05/28 09:37:32;;;;;;;6.43;1.70;;;17.40;99.90;;;;;;5027137;28;20452;-78
2022/05/28 09:40:03;;;;;;;2.90;1.07;;;17.60;99.90;;;;;;5027645;28;20809;-79
2022/05/28 09:42:52;;;;;;;5.90;1.20;;;18.00;99.90;;;;;;5029015;28;20436;-79
2022/05/28 09:45:26;;;;;;;4.53;1.20;;;18.80;99.90;;;;;;5028686;28;20479;-78
2022/05/28 09:47:54;;;;;;;7.70;1.40;;;19.20;99.90;;;;;;5025417;28;20533;-78
2022/05/28 09:50:26;;;;;;;3.73;1.33;;;19.50;99.90;;;;;;5026157;28;20510;-78
2022/05/28 09:56:01;;;;;;;3.87;1.30;;;19.40;99.90;;;;;;5027526;28;20528;-80
2022/05/28 09:58:31;;;;;;;6.43;1.23;;;19.70;99.90;;;;;;5028447;28;20484;-79
2022/05/28 10:01:07;;;;;;;3.70;1.60;;;20.00;99.90;;;;;;5023509;28;20514;-79
2022/05/28 10:06:23;;;;;;;4.00;1.50;;;19.50;99.90;;;;;;5025142;28;20561;-80
2022/05/28 10:08:50;;;;;;;5.57;1.43;;;18.80;99.90;;;;;;5024955;28;20870;-79
2022/05/28 10:11:19;;;;;;;4.90;1.10;;;18.50;99.90;;;;;;5022837;28;20436;-79
2022/05/28 10:13:47;;;;;;;4.20;1.43;;;18.50;99.90;;;;;;5024480;28;20490;-79
2022/05/28 10:16:18;;;;;;;4.30;1.47;;;18.50;99.90;;;;;;5040501;22;20498;-78
2022/05/28 10:18:53;;;;;;;3.43;1.20;;;18.30;99.90;;;;;;5014427;28;20955;-79
2022/05/28 10:21:26;;;;;;;4.47;1.13;;;18.60;99.90;;;;;;5014321;28;20455;-78
2022/05/28 10:23:55;;;;;;;6.20;2.00;;;18.90;99.90;;;;;;5015202;28;20463;-80
2022/05/28 10:26:25;;;;;;;3.40;1.37;;;18.90;99.90;;;;;;5027451;28;20505;-78
2022/05/28 10:28:55;;;;;;;8.07;1.40;;;19.40;99.90;;;;;;5035088;28;20451;-80
2022/05/28 10:31:27;;;;;;;4.77;1.30;;;20.10;99.90;;;;;;5034563;28;20456;-81
2022/05/28 10:33:56;;;;;;;8.37;1.60;;;21.30;99.90;;;;;;5016834;28;20454;-79
2022/05/28 10:36:26;;;;;;;3.50;1.40;;;22.10;99.90;;;;;;5015729;28;20476;-80
2022/05/28 10:38:53;;;;;;;3.73;1.20;;;22.00;99.90;;;;;;5016604;28;20457;-81
2022/05/28 10:41:25;;;;;;;3.77;1.80;;;21.40;99.90;;;;;;5015311;28;20492;-79
2022/05/28 10:43:52;;;;;;;6.90;2.10;;;20.70;99.90;;;;;;5031716;28;20455;-79
2022/05/28 10:46:28;;;;;;;6.83;1.60;;;19.60;99.90;;;;;;5035575;28;20842;-79
2022/05/28 10:49:11;;;;;;;6.63;2.47;;;19.10;99.90;;;;;;4996635;28;20833;-79
2022/05/28 10:51:51;;;;;;;7.90;1.47;;;18.60;99.90;;;;;;4995912;28;20450;-79
2022/05/28 10:54:30;;;;;;;4.27;1.77;;;18.30;99.90;;;;;;5034789;28;20456;-81
2022/05/28 10:57:06;;;;;;;4.70;1.20;;;18.20;99.90;;;;;;5035236;28;20483;-82
2022/05/28 10:59:54;;;;;;;6.40;1.53;;;19.20;99.90;;;;;;5037016;28;20574;-81
2022/05/28 11:02:44;;;;;;;7.23;2.00;;;20.80;99.90;;;;;;5035922;28;20453;-79
2022/05/28 11:05:23;;;;;;;5.33;1.70;;;22.10;99.90;;;;;;5029070;28;20494;-80
2022/05/28 11:07:56;;;;;;;8.33;1.93;;;22.20;99.90;;;;;;5017215;28;20489;-80
2022/05/28 11:10:33;;;;;;;8.23;1.60;;;22.00;99.90;;;;;;5017307;28;20488;-83
2022/05/28 11:13:16;;;;;;;4.43;1.30;;;23.60;99.90;;;;;;5020555;28;20953;-82
2022/05/28 11:16:04;;;;;;;4.77;1.70;;;24.40;99.90;;;;;;5037534;28;20506;-82
2022/05/28 11:18:52;;;;;;;6.70;2.20;;;24.20;99.90;;;;;;5038530;28;20455;-81
2022/05/28 11:21:31;;;;;;;6.20;1.60;;;23.60;99.90;;;;;;5023873;28;20456;-81
2022/05/28 11:24:11;;;;;;;4.10;1.20;;;23.50;99.90;;;;;;5019655;28;20523;-81
2022/05/28 11:26:44;;;;;;;4.37;1.33;;;23.80;99.90;;;;;;5023518;28;20493;-82
2022/05/28 11:29:28;;;;;;;4.97;1.30;;;23.60;99.90;;;;;;5020700;28;20481;-82
2022/05/28 11:31:59;;;;;;;4.27;1.30;;;22.80;99.90;;;;;;5020109;28;20832;-83
2022/05/28 11:34:31;;;;;;;6.47;1.50;;;22.40;99.90;;;;;;5020702;28;20438;-82
2022/05/28 11:37:05;;;;;;;3.80;1.53;;;21.40;99.90;;;;;;5019881;28;20470;-82
2022/05/28 11:39:42;;;;;;;5.70;1.50;;;21.90;99.90;;;;;;5025105;28;20452;-80
2022/05/28 11:42:22;;;;;;;4.77;1.43;;;23.40;99.90;;;;;;5039140;28;20484;-81
2022/05/28 11:44:54;;;;;;;4.20;1.33;;;24.40;99.90;;;;;;5045847;28;20500;-82
2022/05/28 11:47:36;;;;;;;5.60;1.23;;;24.90;98.90;;;;;;5041345;28;20495;-83
2022/05/28 11:53:00;;;;;;;6.00;1.60;;;24.80;98.10;;;;;;5019462;28;20414;-81
2022/05/28 11:55:31;;;;;;;5.80;1.30;;;23.90;97.40;;;;;;5017851;28;20993;-83
2022/05/28 11:58:02;;;;;;;4.70;2.10;;;23.50;97.10;;;;;;5018410;28;20467;-83
2022/05/28 12:00:31;;;;;;;5.93;1.50;;;22.40;96.20;;;;;;5024520;28;20951;-81
2022/05/28 12:03:04;;;;;;;5.07;2.00;;;21.70;98.60;;;;;;5038175;28;20448;-81
2022/05/28 12:05:41;;;;;;;5.77;2.57;;;21.50;99.90;;;;;;5038055;28;20544;-82
2022/05/28 12:08:21;;;;;;;3.83;1.63;;;21.10;99.90;;;;;;5039510;28;21006;-81
2022/05/28 12:10:52;;;;;;;5.00;1.27;;;22.00;99.90;;;;;;5040283;28;20460;-83
2022/05/28 12:13:33;;;;;;;6.53;1.60;;;23.50;99.90;;;;;;5043398;28;20447;-80
2022/05/28 12:16:08;;;;;;;5.10;1.27;;;24.60;99.90;;;;;;5043373;28;20488;-83
2022/05/28 12:18:35;;;;;;;6.70;1.90;;;25.20;96.50;;;;;;5043699;28;20440;-83
2022/05/28 12:21:02;;;;;;;5.93;1.63;;;26.20;99.90;;;;;;5042526;28;20433;-82
2022/05/28 12:23:34;;;;;;;4.83;1.80;;;27.40;98.30;;;;;;5025028;28;20457;-81
2022/05/28 12:26:04;;;;;;;5.60;1.70;;;28.00;90.00;;;;;;5022823;28;20489;-83
2022/05/28 12:28:44;;;;;;;4.77;1.43;;;28.20;88.80;;;;;;5023126;28;20868;-83
2022/05/28 12:31:25;;;;;;;6.03;1.50;;;27.50;86.60;;;;;;5022558;28;20445;-82
2022/05/28 12:33:55;;;;;;;5.37;1.40;;;28.00;89.30;;;;;;5021634;28;20449;-81
2022/05/28 12:36:28;;;;;;;4.73;1.53;;;28.70;89.80;;;;;;5022479;28;20470;-83
2022/05/28 12:39:04;;;;;;;3.00;1.20;;;29.40;82.90;;;;;;5021499;28;20488;-82
2022/05/28 12:41:33;;;;;;;4.63;1.50;;;29.70;73.00;;;;;;5021771;28;20520;-84
2022/05/28 12:44:11;;;;;;;6.30;2.00;;;29.30;68.00;;;;;;5040324;28;20451;-84
2022/05/28 12:46:49;;;;;;;3.67;1.50;;;28.00;64.90;;;;;;5041381;28;20869;-85
2022/05/28 12:49:28;;;;;;;4.50;1.33;;;26.70;67.80;;;;;;5040744;28;20455;-81
2022/05/28 12:52:33;;;;;;;3.87;1.20;;;25.10;73.30;;;;;;5040495;28;20441;-81
2022/05/28 12:55:05;;;;;;;5.07;1.50;;;25.00;67.10;;;;;;5001316;28;20968;-82
2022/05/28 12:57:35;;;;;;;5.07;1.33;;;24.40;64.60;;;;;;5000912;28;20426;-81
2022/05/28 13:00:07;;;;;;;8.43;1.70;;;24.00;67.10;;;;;;5027256;28;20436;-82
2022/05/28 13:02:39;;;;;;;5.43;1.50;;;24.70;61.40;;;;;;5030339;28;20948;-81
2022/05/28 13:05:10;;;;;;;3.20;1.13;;;26.60;66.60;;;;;;5036637;28;20445;-83
2022/05/28 13:07:45;;;;;;;2.90;1.00;;;28.20;76.40;;;;;;5041646;28;20556;-82
2022/05/28 13:10:18;;;;;;;3.60;1.33;;;28.40;62.70;;;;;;5044077;28;20468;-81
2022/05/28 13:12:52;;;;;;;3.23;1.40;;;27.00;64.50;;;;;;5027863;28;20457;-82
2022/05/28 13:15:59;;;;;;;4.00;1.33;;;25.40;60.80;;;;;;5020280;28;20493;-81